• Join FlightAware (Why Join?)
  • Login
  • US Flag 
Rudolph Flight #1: Scheduled 
07:16PM EST


 

Airport Tracker/Info


-or-


 

Live Flight TrackerFlight Track Log ✈ AAL963 ✈ 21-Aug-2013 ✈ KDFW - SBGR / GRU

Flight Track Log - Related Links

Times and Time Zones

All times are in EDT time to prevent confusion due to time zone crossing. See the AAL963 flight status page for this flight to view local times or setup timezone preferences in your user account.

Time Position Orientation Groundspeed Altitude Reporting Facility
EDT Latitude Longitude Course Direction KTS MPH feet Rate Location/Type
09:17PM 32.8710 -97.0510 180° South 190 219 1,500  Level FlightAware
09:18PM 32.8540 -97.0510 180° South 193 222 2,100 1,320 Climbing FlightAware
09:18PM 32.8340 -97.0520 182° South 219 252 2,400 960 Climbing FlightAware
09:18PM 32.8230 -97.0520 180° South 230 265 2,600 1,320 Climbing FlightAware
09:18PM 32.7950 -97.0530 182° South 251 289 3,200 1,980 Climbing FlightAware
09:19PM 32.7710 -97.0530 180° South 251 289 4,100 2,580 Climbing FlightAware
09:19PM 32.7420 -97.0540 182° South 257 296 5,100 2,220 Climbing FlightAware
09:20PM 32.7170 -97.0540 180° South 267 307 5,800 1,920 Climbing FlightAware
09:20PM 32.7050 -97.0540 180° South 272 313 6,100 2,280 Climbing FlightAware
09:20PM 32.6780 -97.0550 182° South 274 315 7,000 2,580 Climbing FlightAware
09:20PM 32.6570 -97.0550 180° South 276 318 7,700 2,460 Climbing FlightAware
09:21PM 32.6340 -97.0550 180° South 280 322 8,400 2,220 Climbing FlightAware
09:21PM 32.5960 -97.0460 169° South 290 334 9,500 2,220 Climbing FlightAware
09:21PM 32.5840 -97.0380 151° Southeast 292 336 9,900 1,560 Climbing FlightAware
09:22PM 32.5480 -97.0110 148° Southeast 314 361 10,600 1,320 Climbing FlightAware
09:22PM 32.5000 -96.9750 148° Southeast 349 402 11,400 1,440 Climbing FlightAware
09:23PM 32.4440 -96.9360 150° Southeast 377 434 12,400 1,860 Climbing FlightAware
09:24PM 32.3930 -96.9110 158° South 388 447 13,600 2,220 Climbing FlightAware
09:24PM 32.3420 -96.8880 159° South 397 457 14,700 2,160 Climbing FlightAware
09:25PM 32.2690 -96.8550 159° South 408 470 16,200 2,100 Climbing FlightAware
09:25PM 32.2100 -96.8280 159° South 417 480 17,300 1,980 Climbing FlightAware
09:26PM 32.1509 -96.8009 159° South 426 490 18,400 1,980 Climbing FlightAware ADS-B
09:26PM 32.0955 -96.7755 159° South 431 496 19,400 1,860 Climbing FlightAware ADS-B
09:27PM 32.0287 -96.7451 159° South 437 503 20,500 1,860 Climbing FlightAware ADS-B
09:27PM 31.9701 -96.7184 159° South 444 511 21,500 1,920 Climbing FlightAware ADS-B
09:28PM 31.9112 -96.6915 159° South 450 518 22,500 1,800 Climbing FlightAware ADS-B
09:28PM 31.8494 -96.6634 159° South 456 525 23,400 1,620 Climbing FlightAware ADS-B
09:29PM 31.7880 -96.6355 159° South 464 534 24,200 1,320 Climbing FlightAware ADS-B
09:30PM 31.7290 -96.5784 130° Southeast 472 543 24,900 1,380 Climbing FlightAware ADS-B
09:31PM 31.6493 -96.4433 125° Southeast 486 559 26,500 1,440 Climbing FlightAware ADS-B
09:31PM 31.6109 -96.3770 124° Southeast 492 566 27,200 1,320 Climbing FlightAware ADS-B
09:32PM 31.5719 -96.3088 124° Southeast 498 573 27,900 1,320 Climbing FlightAware ADS-B
09:32PM 31.5322 -96.2394 124° Southeast 503 579 28,600 1,380 Climbing FlightAware ADS-B
09:33PM 31.4889 -96.1638 124° Southeast 508 585 29,400 1,500 Climbing FlightAware ADS-B
09:33PM 31.4487 -96.0936 124° Southeast 510 587 30,200 1,740 Climbing FlightAware ADS-B
09:34PM 31.4087 -96.0227 123° Southeast 506 582 31,200 1,620 Climbing FlightAware ADS-B
09:34PM 31.3700 -95.9532 123° Southeast 507 583 31,900 1,440 Climbing FlightAware ADS-B
09:35PM 31.3316 -95.8833 123° Southeast 507 583 32,700 1,020 Climbing FlightAware ADS-B
09:35PM 31.2910 -95.8087 122° Southeast 503 579 33,000 240 Climbing FlightAware ADS-B
09:36PM 31.2526 -95.7381 122° Southeast 504 580 33,000  Level FlightAware ADS-B
09:38PM 31.0986 -95.4548 122° Southeast 505 581 33,000  Level FlightAware ADS-B
09:38PM 31.0610 -95.3853 122° Southeast 506 582 33,000  Level FlightAware ADS-B
09:39PM 30.9859 -95.2472 122° Southeast 503 579 33,000  Level FlightAware ADS-B
09:40PM 30.9474 -95.1766 122° Southeast 504 580 33,000  Level FlightAware ADS-B
09:40PM 30.9299 -95.1469 124° Southeast 503 579 33,000  Level FlightAware ADS-B
09:40PM 30.9090 -95.1175 130° Southeast 500 575 33,000  Level FlightAware ADS-B
09:41PM 30.8672 -95.0670 134° Southeast 499 574 33,000  Level FlightAware ADS-B
09:41PM 30.8326 -95.0305 138° Southeast 497 572 33,000  Level FlightAware ADS-B
09:42PM 30.7780 -94.9807 142° Southeast 497 572 33,000  Level FlightAware ADS-B
09:42PM 30.7221 -94.9318 143° Southeast 498 573 33,000  Level FlightAware ADS-B
09:43PM 30.6660 -94.8829 143° Southeast 496 571 33,000  Level FlightAware ADS-B
09:43PM 30.6112 -94.8350 143° Southeast 497 572 33,000  Level FlightAware ADS-B
09:44PM 30.4993 -94.7369 143° Southeast 498 573 33,000  Level FlightAware ADS-B
09:45PM 30.3720 -94.6255 143° Southeast 497 572 33,000  Level FlightAware ADS-B
09:46PM 30.3162 -94.5768 143° Southeast 497 572 33,000  Level FlightAware ADS-B
09:46PM 30.2610 -94.5289 143° Southeast 497 572 33,000  Level FlightAware ADS-B
09:48PM 30.0401 -94.3372 143° Southeast 491 565 33,000  Level FlightAware ADS-B
09:49PM 29.9854 -94.2901 143° Southeast 489 563 33,000  Level FlightAware ADS-B
09:49PM 29.9309 -94.2431 143° Southeast 488 562 33,000  Level FlightAware ADS-B
09:50PM 29.8737 -94.1938 143° Southeast 488 562 33,000  Level FlightAware ADS-B
09:50PM 29.8186 -94.1463 143° Southeast 489 563 33,000  Level FlightAware ADS-B
09:51PM 29.7085 -94.0518 143° Southeast 489 563 33,000  Level FlightAware ADS-B
09:52PM 29.6530 -94.0043 143° Southeast 491 565 33,000  Level FlightAware ADS-B
09:52PM 29.5980 -93.9573 143° Southeast 490 564 33,000  Level FlightAware ADS-B
09:53PM 29.5435 -93.9108 143° Southeast 490 564 33,000  Level FlightAware ADS-B
09:53PM 29.4887 -93.8641 143° Southeast 491 565 33,000  Level FlightAware ADS-B
09:54PM 29.4300 -93.8142 143° Southeast 490 564 33,000  Level FlightAware ADS-B
09:54PM 29.3748 -93.7673 143° Southeast 490 564 33,000  Level FlightAware ADS-B
09:55PM 29.3069 -93.7097 144° Southeast 488 562 33,000  Level FlightAware ADS-B
09:56PM 29.2193 -93.6355 144° Southeast 489 563 33,000  Level FlightAware ADS-B
09:56PM 29.1524 -93.5791 144° Southeast 488 562 33,000  Level FlightAware ADS-B
09:57PM 29.0975 -93.5327 144° Southeast 488 562 33,000  Level FlightAware ADS-B
09:58PM 28.9953 -93.4453 144° Southeast 494 568 33,000  Level Houston Center
09:59PM 28.8858 -93.3536 144° Southeast 489 563 33,000  Level Houston Center
10:00PM 28.7539 -93.2436 144° Southeast 490 564 33,000  Level Houston Center
10:01PM 28.6439 -93.1514 144° Southeast 492 566 33,000 -60 Level Houston Center
10:02PM 28.5347 -93.0608 144° Southeast 488 562 32,900 -60 Descending Houston Center
10:03PM 28.4253 -92.9675 143° Southeast 491 565 32,900  Level Houston Center
10:04PM 28.3139 -92.8783 145° Southeast 490 564 32,900  Level Houston Center
10:05PM 28.2042 -92.7869 144° Southeast 491 565 33,000  Climbing Houston Center
10:06PM 28.0942 -92.6944 143° Southeast 491 565 33,000  Level Houston Center
10:07PM 27.9836 -92.6053 145° Southeast 490 564 33,000  Level Houston Center
10:08PM 27.8736 -92.5153 144° Southeast 489 563 33,000  Level Houston Center
10:09PM 27.7617 -92.4253 145° Southeast 493 567 33,000 -60 Level Houston Center
10:10PM 27.6511 -92.3350 144° Southeast 491 565 32,900  Descending Houston Center
10:11PM 27.5186 -92.2261 144° Southeast 491 565 33,000  Climbing Houston Center
10:12PM 27.4061 -92.1364 145° Southeast 492 566 33,000 -60 Level Houston Center
10:13PM 27.2944 -92.0461 144° Southeast 493 567 32,900 -60 Descending Houston Center
10:14PM 27.1844 -91.9583 145° Southeast 491 565 32,900  Level Houston Center
10:15PM 27.0736 -91.8692 144° Southeast 492 566 32,900  Level Houston Center
10:16PM 26.9622 -91.7792 144° Southeast 491 565 33,000  Climbing Houston Center
10:17PM 26.8528 -91.6892 144° Southeast 490 564 33,000  Level Houston Center
10:19PM 26.7353 -91.5939 144° Southeast  Level FlightAware Approximate
10:26PM 25.9687 -90.9920 145° Southeast  Level FlightAware Approximate
10:27PM 25.8595 -90.9058 145° Southeast  Level FlightAware Approximate
10:28PM 25.7502 -90.8199 145° Southeast  Level FlightAware Approximate
10:29PM 25.6409 -90.7340 145° Southeast  Level FlightAware Approximate
10:30PM 25.5315 -90.6484 145° Southeast  Level FlightAware Approximate
10:31PM 25.4221 -90.5629 145° Southeast  Level FlightAware Approximate
10:32PM 25.3126 -90.4776 145° Southeast  Level FlightAware Approximate
10:33PM 25.2031 -90.3924 145° Southeast  Level FlightAware Approximate
10:34PM 25.0935 -90.3073 145° Southeast  Level FlightAware Approximate
10:35PM 24.9839 -90.2225 145° Southeast  Level FlightAware Approximate
10:36PM 24.8742 -90.1377 145° Southeast  Level FlightAware Approximate
10:37PM 24.7645 -90.0531 145° Southeast  Level FlightAware Approximate
10:38PM 24.6548 -89.9687 145° Southeast  Level FlightAware Approximate
10:39PM 24.5450 -89.8844 145° Southeast  Level FlightAware Approximate
10:40PM 24.4379 -89.7983 145° Southeast  Level FlightAware Approximate
10:40PM 24.3320 -89.7320 145° Southeast 33,000  Level FlightAware
10:41PM 24.2710 -89.7000 154° Southeast 494 568 33,000  Level FlightAware
10:41PM 24.1810 -89.6550 155° Southeast 494 568 33,000  Level FlightAware
10:42PM 24.1330 -89.6300 155° Southeast 494 568 33,000  Level FlightAware
10:43PM 24.0470 -89.5860 155° Southeast 494 568 33,000  Level FlightAware
10:43PM 23.9830 -89.5540 155° Southeast 494 568 33,000  Level FlightAware
10:44PM 23.8730 -89.4990 155° Southeast 498 573 33,000  Level FlightAware
10:45PM 23.7740 -89.4510 156° South 500 575 33,000  Level FlightAware
10:45PM 23.6980 -89.4120 155° Southeast 499 574 33,000  Level FlightAware
10:46PM 23.6310 -89.3720 151° Southeast 499 574 33,000  Level FlightAware
10:46PM 23.5530 -89.2920 137° Southeast 496 571 33,000  Level FlightAware
10:47PM 23.4970 -89.2370 138° Southeast 496 571 33,000  Level FlightAware
10:48PM 23.4140 -89.1530 137° Southeast 496 571 33,000  Level FlightAware
10:49PM 23.3300 -89.0700 138° Southeast 497 572 33,000  Level FlightAware
10:49PM 23.2790 -89.0200 138° Southeast 496 571 33,000  Level FlightAware
10:50PM 23.2010 -88.9430 138° Southeast 497 572 33,000  Level FlightAware
10:50PM 23.1370 -88.8790 137° Southeast 498 573 33,000  Level FlightAware
10:51PM 23.0640 -88.8070 138° Southeast 496 571 33,000  Level FlightAware
10:52PM 23.0210 -88.7650 138° Southeast 498 573 33,000  Level FlightAware
10:52PM 22.9640 -88.7090 138° Southeast 499 574 33,000  Level FlightAware
10:53PM 22.8530 -88.5990 138° Southeast 499 574 33,000  Level FlightAware
10:54PM 22.7920 -88.5390 138° Southeast 499 574 33,000  Level FlightAware
10:54PM 22.7270 -88.4750 138° Southeast 499 574 33,000  Level FlightAware
10:55PM 22.6740 -88.4240 138° Southeast 498 573 33,000  Level FlightAware
10:55PM 22.6090 -88.3600 138° Southeast 498 573 33,000  Level FlightAware
10:56PM 22.5410 -88.2930 138° Southeast 499 574 33,000  Level FlightAware
10:57PM 22.4840 -88.2380 138° Southeast 500 575 33,000  Level FlightAware
10:57PM 22.4130 -88.1690 138° Southeast 500 575 33,000 120 Level FlightAware
10:58PM 22.3480 -88.1050 138° Southeast 502 578 33,200 780 Climbing FlightAware
10:59PM 22.2870 -88.0450 138° Southeast 500 575 34,000 1,320 Climbing FlightAware
10:59PM 22.2330 -87.9930 138° Southeast 498 573 34,800 720 Climbing FlightAware
11:00PM 22.1530 -87.9160 138° Southeast 496 571 35,000 120 Climbing FlightAware
11:00PM 22.1010 -87.8650 138° Southeast 498 573 35,000  Level FlightAware
11:01PM 22.0320 -87.7990 138° Southeast 497 572 35,000  Level FlightAware
11:02PM 21.9780 -87.7470 138° Southeast 497 572 35,000  Level FlightAware
11:02PM 21.9170 -87.6880 138° Southeast 498 573 35,000  Level FlightAware
11:03PM 21.8400 -87.6130 138° Southeast 498 573 35,000  Level FlightAware
11:04PM 21.7880 -87.5630 138° Southeast 499 574 35,000  Level FlightAware
11:04PM 21.7200 -87.4970 138° Southeast 499 574 35,000  Level FlightAware
11:05PM 21.6600 -87.4400 139° Southeast 499 574 35,000  Level FlightAware
11:05PM 21.5910 -87.3740 138° Southeast 499 574 35,000  Level FlightAware
11:06PM 21.5180 -87.3040 138° Southeast 499 574 35,000  Level FlightAware
11:07PM 21.4520 -87.2410 138° Southeast 501 577 35,000  Level FlightAware
11:07PM 21.4000 -87.1920 139° Southeast 502 578 35,000  Level FlightAware
11:08PM 21.3340 -87.1280 138° Southeast 504 580 35,000  Level FlightAware
11:08PM 21.2710 -87.0680 138° Southeast 505 581 35,000  Level FlightAware
11:09PM 21.2080 -87.0080 138° Southeast 506 582 35,000  Level FlightAware
11:09PM 21.1510 -86.9540 139° Southeast 506 582 35,000  Level FlightAware
11:10PM 21.0890 -86.8950 138° Southeast 506 582 35,000  Level FlightAware
11:11PM 21.0250 -86.8340 138° Southeast 506 582 35,000  Level FlightAware
11:11PM 20.9700 -86.7820 139° Southeast 507 583 35,000  Level FlightAware
11:12PM 20.9070 -86.7220 138° Southeast 509 586 35,000  Level FlightAware
11:12PM 20.8400 -86.6590 139° Southeast 509 586 35,000  Level FlightAware
11:13PM 20.7870 -86.6090 139° Southeast 510 587 35,000  Level FlightAware
11:14PM 20.7190 -86.5450 139° Southeast 510 587 35,000  Level FlightAware
11:14PM 20.6590 -86.4880 138° Southeast 510 587 35,000  Level FlightAware
11:15PM 20.5930 -86.4260 139° Southeast 510 587 35,000  Level FlightAware
11:15PM 20.5300 -86.3660 138° Southeast 510 587 35,000  Level FlightAware
11:16PM 20.4770 -86.3160 139° Southeast 510 587 35,000  Level FlightAware
11:17PM 20.4130 -86.2560 139° Southeast 510 587 35,000  Level FlightAware
11:17PM 20.3590 -86.2040 138° Southeast 510 587 35,000  Level FlightAware
11:18PM 20.3040 -86.1510 138° Southeast 510 587 35,000  Level FlightAware
11:18PM 20.2500 -86.1000 138° Southeast 510 587 35,000  Level FlightAware
11:19PM 20.1480 -86.0090 140° Southeast 513 590 35,000  Level FlightAware
11:20PM 20.0570 -85.9240 139° Southeast 512 589 35,000  Level FlightAware
11:20PM 19.9940 -85.8650 139° Southeast 514 592 35,000  Level FlightAware
11:21PM 19.9330 -85.8070 138° Southeast 514 592 35,000  Level FlightAware
11:22PM 19.8690 -85.7470 139° Southeast 514 592 35,000  Level FlightAware
11:22PM 19.8040 -85.6860 139° Southeast 514 592 35,000  Level FlightAware
11:23PM 19.7470 -85.6320 138° Southeast 514 592 35,000  Level FlightAware
11:23PM 19.6980 -85.5860 139° Southeast 512 589 35,000  Level FlightAware
11:24PM 19.6380 -85.5290 138° Southeast 512 589 35,000  Level FlightAware
11:25PM 19.5480 -85.4440 138° Southeast 510 587 35,000  Level FlightAware
11:25PM 19.4730 -85.3750 139° Southeast 510 587 35,000  Level FlightAware
11:26PM 19.4130 -85.3190 139° Southeast 510 587 35,000  Level FlightAware
11:26PM 19.3480 -85.2580 138° Southeast 512 589 35,000  Level FlightAware
11:27PM 19.2780 -85.1930 139° Southeast 512 589 35,000  Level FlightAware
11:28PM 19.2120 -85.1310 138° Southeast 512 589 35,000  Level FlightAware
11:28PM 19.1580 -85.0790 138° Southeast 512 589 35,000  Level FlightAware
11:29PM 19.1040 -85.0280 138° Southeast 512 589 35,000  Level FlightAware
11:30PM 19.0500 -84.9770 138° Southeast 512 589 35,000  Level FlightAware
11:30PM 18.9970 -84.9250 137° Southeast 512 589 35,000  Level FlightAware
11:31PM 18.9430 -84.8740 138° Southeast 512 589 35,000  Level FlightAware
11:31PM 18.8890 -84.8230 138° Southeast 512 589 35,000  Level FlightAware
11:32PM 18.8350 -84.7710 138° Southeast 512 589 35,000  Level FlightAware
11:33PM 18.7810 -84.7200 138° Southeast 512 589 35,000  Level FlightAware
11:33PM 18.7260 -84.6680 138° Southeast 512 589 35,000  Level FlightAware
11:34PM 18.6720 -84.6160 138° Southeast 512 589 35,000  Level FlightAware
11:34PM 18.6180 -84.5650 138° Southeast 512 589 35,000  Level FlightAware
11:35PM 18.5640 -84.5140 138° Southeast 512 589 35,000  Level FlightAware
11:36PM 18.5100 -84.4630 138° Southeast 512 589 35,000  Level FlightAware
11:36PM 18.4550 -84.4100 138° Southeast 512 589 35,000  Level FlightAware
11:37PM 18.4010 -84.3590 138° Southeast 512 589 35,000  Level FlightAware
11:39PM 18.2820 -84.1624 122° Southeast  Level FlightAware Approximate
11:40PM 18.2106 -84.0445 123° Southeast  Level FlightAware Approximate
11:41PM 18.1390 -83.9268 123° Southeast  Level FlightAware Approximate
11:42PM 18.0674 -83.8091 123° Southeast  Level FlightAware Approximate
11:43PM 17.9957 -83.6916 123° Southeast  Level FlightAware Approximate
11:44PM 17.9152 -83.5807 135° Southeast  Level FlightAware Approximate
11:45PM 17.8205 -83.4829 135° Southeast  Level FlightAware Approximate
11:46PM 17.7257 -83.3852 136° Southeast  Level FlightAware Approximate
11:47PM 17.6308 -83.2877 136° Southeast  Level FlightAware Approximate
11:48PM 17.5360 -83.1902 136° Southeast  Level FlightAware Approximate
11:49PM 17.4410 -83.0928 136° Southeast  Level FlightAware Approximate
11:50PM 17.3450 -82.9968 139° Southeast  Level FlightAware Approximate
11:51PM 17.2449 -82.9054 139° Southeast  Level FlightAware Approximate
11:52PM 17.1449 -82.8140 139° Southeast  Level FlightAware Approximate
11:53PM 17.0447 -82.7227 139° Southeast  Level FlightAware Approximate
11:54PM 16.9446 -82.6316 139° Southeast  Level FlightAware Approximate
11:55PM 16.8444 -82.5405 139° Southeast  Level FlightAware Approximate
11:56PM 16.7441 -82.4495 139° Southeast  Level FlightAware Approximate
11:57PM 16.6439 -82.3586 139° Southeast  Level FlightAware Approximate
11:58PM 16.5435 -82.2679 139° Southeast  Level FlightAware Approximate
11:59PM 16.4438 -82.1765 134° Southeast  Level FlightAware Approximate
12:00AM 16.3520 -82.0764 134° Southeast  Level FlightAware Approximate
12:01AM 16.2603 -81.9764 134° Southeast  Level FlightAware Approximate
12:02AM 16.1685 -81.8764 134° Southeast  Level FlightAware Approximate
12:03AM 16.0766 -81.7766 134° Southeast  Level FlightAware Approximate
12:04AM 15.9847 -81.6769 134° Southeast  Level FlightAware Approximate
12:05AM 15.8928 -81.5772 134° Southeast  Level FlightAware Approximate
12:06AM 15.8008 -81.4777 134° Southeast  Level FlightAware Approximate
12:07AM 15.7088 -81.3782 134° Southeast  Level FlightAware Approximate
12:08AM 15.6167 -81.2788 134° Southeast  Level FlightAware Approximate
12:09AM 15.5246 -81.1795 134° Southeast  Level FlightAware Approximate
12:10AM 15.4324 -81.0803 134° Southeast  Level FlightAware Approximate
12:11AM 15.3402 -80.9812 134° Southeast  Level FlightAware Approximate
12:12AM 15.2480 -80.8822 134° Southeast  Level FlightAware Approximate
12:13AM 15.1557 -80.7832 134° Southeast  Level FlightAware Approximate
12:14AM 15.0633 -80.6844 134° Southeast  Level FlightAware Approximate
12:15AM 14.9670 -80.5901 142° Southeast  Level FlightAware Approximate
12:16AM 14.8622 -80.5058 142° Southeast  Level FlightAware Approximate
12:17AM 14.7574 -80.4215 142° Southeast  Level FlightAware Approximate
12:18AM 14.6525 -80.3373 142° Southeast  Level FlightAware Approximate
12:19AM 14.5476 -80.2532 142° Southeast  Level FlightAware Approximate
12:20AM 14.4426 -80.1692 142° Southeast  Level FlightAware Approximate
12:21AM 14.3376 -80.0852 142° Southeast  Level FlightAware Approximate
12:22AM 14.2326 -80.0013 142° Southeast  Level FlightAware Approximate
12:23AM 14.1276 -79.9175 142° Southeast  Level FlightAware Approximate
12:24AM 14.0225 -79.8338 142° Southeast  Level FlightAware Approximate
12:25AM 13.9174 -79.7502 142° Southeast  Level FlightAware Approximate
12:26AM 13.8123 -79.6665 142° Southeast  Level FlightAware Approximate
12:27AM 13.7076 -79.5824 142° Southeast  Level FlightAware Approximate
12:28AM 13.6029 -79.4984 142° Southeast  Level FlightAware Approximate
12:29AM 13.4981 -79.4145 142° Southeast  Level FlightAware Approximate
12:30AM 13.3933 -79.3306 142° Southeast  Level FlightAware Approximate
12:31AM 13.2885 -79.2469 142° Southeast  Level FlightAware Approximate
12:32AM 13.1836 -79.1632 142° Southeast  Level FlightAware Approximate
12:33AM 13.0787 -79.0795 142° Southeast  Level FlightAware Approximate
12:34AM 12.9738 -78.9960 142° Southeast  Level FlightAware Approximate
12:35AM 12.8688 -78.9125 142° Southeast  Level FlightAware Approximate
12:36AM 12.7639 -78.8291 142° Southeast  Level FlightAware Approximate
12:37AM 12.6589 -78.7457 142° Southeast  Level FlightAware Approximate
12:38AM 12.5539 -78.6624 142° Southeast  Level FlightAware Approximate
12:39AM 12.4488 -78.5792 142° Southeast  Level FlightAware Approximate
12:40AM 12.3438 -78.4961 142° Southeast  Level FlightAware Approximate
12:41AM 12.2387 -78.4130 142° Southeast  Level FlightAware Approximate
12:42AM 12.1335 -78.3300 142° Southeast  Level FlightAware Approximate
12:43AM 12.0278 -78.2478 143° Southeast  Level FlightAware Approximate
12:44AM 11.9220 -78.1658 143° Southeast  Level FlightAware Approximate
12:44AM 11.4100 -77.7660 143° Southeast 488 562 35,000  Level FlightAware
12:44AM 11.3620 -77.7270 141° Southeast 488 562 35,000  Level FlightAware
12:45AM 11.8161 -78.0839 143° Southeast  Level FlightAware Approximate
12:45AM 11.2710 -77.6570 143° Southeast 488 562 35,000  Level FlightAware
12:46AM 11.2160 -77.6140 143° Southeast 488 562 35,000  Level FlightAware
12:47AM 11.1620 -77.5700 141° Southeast 488 562 35,000  Level FlightAware
12:47AM 11.1070 -77.5270 143° Southeast 488 562 35,000  Level FlightAware
12:48AM 10.9960 -77.4460 144° Southeast 474 545 35,000  Level FlightAware
12:48AM 10.9280 -77.3980 145° Southeast 473 544 35,000  Level FlightAware
12:49AM 10.8660 -77.3710 157° South 472 543 35,000  Level FlightAware
12:50AM 10.7760 -77.3320 157° South 473 544 35,000  Level FlightAware
12:50AM 10.6890 -77.2930 156° South 473 544 35,000  Level FlightAware
12:51AM 10.6090 -77.2610 159° South 480 552 35,000  Level FlightAware
12:52AM 10.5450 -77.2330 157° South 480 552 35,000  Level FlightAware
12:52AM 10.4580 -77.1970 158° South 474 545 35,000  Level FlightAware
12:53AM 10.3650 -77.1580 158° South 469 540 35,000  Level FlightAware
12:54AM 10.2930 -77.1280 158° South 474 545 35,000  Level FlightAware
12:54AM 10.2160 -77.0950 157° South 476 548 35,000  Level FlightAware
12:55AM 10.1460 -77.0650 157° South 485 558 35,000  Level FlightAware
12:56AM 10.0610 -77.0300 158° South 484 557 35,000  Level FlightAware
12:56AM 9.9680 -76.9910 158° South 485 558 35,000  Level FlightAware
12:57AM 9.8980 -76.9550 153° Southeast 484 557 35,000  Level FlightAware
12:57AM 9.8180 -76.9080 150° Southeast 483 556 35,000  Level FlightAware
12:58AM 9.7570 -76.8720 150° Southeast 482 555 35,000  Level FlightAware
12:59AM 9.6940 -76.8340 149° Southeast 473 544 35,000  Level FlightAware
12:59AM 9.5990 -76.7780 150° Southeast 471 542 35,000  Level FlightAware
01:00AM 9.5100 -76.7250 150° Southeast 472 543 35,000  Level FlightAware
01:01AM 9.4500 -76.6870 148° Southeast 472 543 35,000  Level FlightAware
01:01AM 9.3930 -76.6510 148° Southeast 472 543 35,000  Level FlightAware
01:02AM 9.3350 -76.6140 148° Southeast 472 543 35,000  Level FlightAware
01:03AM 9.2780 -76.5780 148° Southeast 472 543 35,000  Level FlightAware
01:03AM 9.2220 -76.5420 148° Southeast 472 543 35,000  Level FlightAware
01:04AM 9.1630 -76.5050 148° Southeast 472 543 35,000  Level FlightAware
01:04AM 9.1070 -76.4690 148° Southeast 472 543 35,000  Level FlightAware
01:05AM 9.0500 -76.4340 149° Southeast 472 543 35,000  Level FlightAware
01:06AM 8.9930 -76.3980 148° Southeast 472 543 35,000  Level FlightAware
01:06AM 8.9350 -76.3610 148° Southeast 472 543 35,000  Level FlightAware
01:07AM 8.8780 -76.3250 148° Southeast 472 543 35,000  Level FlightAware
01:07AM 8.8220 -76.2890 148° Southeast 472 543 35,000  Level FlightAware
01:08AM 8.7650 -76.2530 148° Southeast 472 543 35,000  Level FlightAware
01:09AM 8.7080 -76.2180 149° Southeast 472 543 35,000  Level FlightAware
01:09AM 8.6500 -76.1810 148° Southeast 472 543 35,000  Level FlightAware
01:12AM 8.4313 -75.9851 138° Southeast  Level Estimated
01:13AM 8.3319 -75.8961 138° Southeast  Level Estimated
01:14AM 8.2325 -75.8072 138° Southeast  Level Estimated
01:15AM 8.1330 -75.7183 138° Southeast  Level Estimated
01:16AM 8.0335 -75.6294 139° Southeast  Level Estimated
01:16AM 8.1750 -75.0500 139° Southeast 499 574 35,000  Level FlightAware
01:16AM 8.1620 -75.0310 125° Southeast 497 572 35,000  Level FlightAware
01:16AM 8.1550 -75.0200 123° Southeast 497 572 35,000  Level FlightAware
01:16AM 8.1480 -75.0100 125° Southeast 496 571 35,000  Level FlightAware
01:16AM 8.1370 -74.9950 127° Southeast 495 570 35,000  Level FlightAware
01:17AM 8.1260 -74.9790 125° Southeast 494 568 35,000  Level FlightAware
01:17AM 8.1110 -74.9570 125° Southeast 495 570 35,000  Level FlightAware
01:17AM 8.0910 -74.9280 125° Southeast 497 572 35,000  Level FlightAware
01:17AM 8.0850 -74.9190 124° Southeast 496 571 35,000  Level FlightAware
01:17AM 8.0700 -74.8980 126° Southeast 496 571 35,000  Level FlightAware
01:17AM 8.0640 -74.8900 127° Southeast 496 571 35,000  Level FlightAware
01:17AM 8.0620 -74.8850 112° Southeast 496 571 35,000  Level FlightAware
01:18AM 8.0450 -74.8620 127° Southeast 494 568 35,000  Level FlightAware
01:18AM 8.0370 -74.8500 124° Southeast 494 568 35,000  Level FlightAware
01:18AM 8.0240 -74.8310 125° Southeast 494 568 35,000  Level FlightAware
01:18AM 8.0200 -74.8250 124° Southeast 494 568 35,000  Level FlightAware
01:18AM 8.0130 -74.8160 128° Southeast 494 568 35,000  Level FlightAware
01:18AM 7.9850 -74.7760 125° Southeast 494 568 35,000  Level FlightAware
01:18AM 7.9770 -74.7630 122° Southeast 494 568 35,000  Level FlightAware
01:19AM 7.9350 -74.7030 125° Southeast 495 570 35,000  Level FlightAware
01:19AM 7.9190 -74.6810 126° Southeast 494 568 35,000  Level FlightAware
01:19AM 7.9110 -74.6700 126° Southeast 494 568 35,000  Level FlightAware
01:20AM 7.8890 -74.6370 124° Southeast 494 568 35,000  Level FlightAware
01:20AM 7.8790 -74.6230 126° Southeast 494 568 35,000  Level FlightAware
01:20AM 7.8760 -74.6180 121° Southeast 494 568 35,000  Level FlightAware
01:20AM 7.8600 -74.5960 126° Southeast 494 568 35,000  Level FlightAware
01:20AM 7.8540 -74.5860 121° Southeast 494 568 35,000  Level FlightAware
01:20AM 7.8470 -74.5760 125° Southeast 494 568 35,000  Level FlightAware
01:20AM 7.8340 -74.5570 125° Southeast 494 568 35,000  Level FlightAware
01:20AM 7.8270 -74.5480 128° Southeast 494 568 35,000  Level FlightAware
01:21AM 7.7710 -74.4800 130° Southeast 496 571 35,000  Level FlightAware
01:22AM 7.7090 -74.4230 138° Southeast 493 567 35,000  Level FlightAware
01:22AM 7.6580 -74.3760 138° Southeast 490 564 35,000  Level FlightAware
01:22AM 7.6150 -74.3410 141° Southeast 491 565 35,000  Level FlightAware
01:23AM 7.5400 -74.2890 145° Southeast 490 564 35,000  Level FlightAware
01:24AM 7.4790 -74.2370 140° Southeast 489 563 35,000  Level FlightAware
01:24AM 7.4210 -74.1870 139° Southeast 489 563 35,000  Level FlightAware
01:25AM 7.3580 -74.1330 140° Southeast 489 563 35,000  Level FlightAware
01:25AM 7.3100 -74.0900 138° Southeast 489 563 35,000  Level FlightAware
01:26AM 7.2570 -74.0450 140° Southeast 489 563 35,000  Level FlightAware
01:27AM 7.1750 -73.9730 139° Southeast 492 566 35,000  Level FlightAware
01:27AM 7.1220 -73.9270 139° Southeast 492 566 35,000  Level FlightAware
01:28AM 7.0050 -73.8480 146° Southeast 494 568 35,000  Level FlightAware
01:29AM 6.9220 -73.8000 150° Southeast 495 570 35,000  Level FlightAware
01:30AM 6.8440 -73.7480 146° Southeast 498 573 35,000  Level FlightAware
01:30AM 6.7730 -73.7010 147° Southeast 497 572 35,000  Level FlightAware
01:31AM 6.7020 -73.6530 146° Southeast 497 572 35,000  Level FlightAware
01:31AM 6.6430 -73.6140 147° Southeast 497 572 35,000  Level FlightAware
01:32AM 6.5710 -73.5660 146° Southeast 496 571 35,000  Level FlightAware
01:33AM 6.5020 -73.5210 147° Southeast 494 568 35,000  Level FlightAware
01:33AM 6.4330 -73.4750 146° Southeast 494 568 35,000  Level FlightAware
01:34AM 6.3740 -73.4350 146° Southeast 495 570 35,000  Level FlightAware
01:34AM 6.3070 -73.3910 147° Southeast 494 568 35,000  Level FlightAware
01:35AM 6.2370 -73.3440 146° Southeast 494 568 35,000  Level FlightAware
01:36AM 6.1410 -73.2800 146° Southeast 496 571 35,000  Level FlightAware
01:36AM 6.0810 -73.2390 146° Southeast 496 571 35,000  Level FlightAware
01:37AM 6.0230 -73.2000 146° Southeast 496 571 35,000  Level FlightAware
01:38AM 5.9680 -73.1630 146° Southeast 496 571 35,000  Level FlightAware
01:38AM 5.9100 -73.1230 146° Southeast 496 571 35,000  Level FlightAware
01:39AM 5.8500 -73.0830 146° Southeast 496 571 35,000  Level FlightAware
01:39AM 5.7910 -73.0430 146° Southeast 496 571 35,000  Level FlightAware
01:40AM 5.7330 -73.0040 146° Southeast 496 571 35,000  Level FlightAware
01:41AM 5.5770 -72.9070 148° Southeast 497 572 35,000  Level FlightAware
01:41AM 5.5120 -72.8640 147° Southeast 494 568 35,000  Level FlightAware
01:42AM 5.4430 -72.8190 147° Southeast 494 568 35,000  Level FlightAware
01:42AM 5.3780 -72.7750 146° Southeast 492 566 35,000  Level FlightAware
01:43AM 5.3090 -72.7300 147° Southeast 493 567 35,000  Level FlightAware
01:43AM 5.2420 -72.6850 146° Southeast 495 570 35,000  Level FlightAware
01:44AM 5.1880 -72.6490 146° Southeast 495 570 35,000  Level FlightAware
01:45AM 5.1300 -72.6090 146° Southeast 495 570 35,000  Level FlightAware
01:45AM 5.0720 -72.5700 146° Southeast 495 570 35,000  Level FlightAware
01:46AM 5.0130 -72.5310 147° Southeast 495 570 35,000  Level FlightAware
01:46AM 4.9540 -72.4900 145° Southeast 495 570 35,000  Level FlightAware
01:47AM 4.8960 -72.4510 146° Southeast 495 570 35,000  Level FlightAware
01:48AM 4.8380 -72.4120 146° Southeast 495 570 35,000  Level FlightAware
01:48AM 4.7790 -72.3720 146° Southeast 495 570 35,000  Level FlightAware
01:49AM 4.7210 -72.3330 146° Southeast 495 570 35,000  Level FlightAware
01:49AM 4.6620 -72.2930 146° Southeast 495 570 35,000  Level FlightAware
01:50AM 4.6040 -72.2530 145° Southeast 495 570 35,000  Level FlightAware
01:51AM 4.5450 -72.2140 147° Southeast 495 570 35,000  Level FlightAware
01:51AM 4.4860 -72.1740 146° Southeast 495 570 35,000  Level FlightAware
01:52AM 4.4280 -72.1340 145° Southeast 495 570 35,000  Level FlightAware
01:53AM 4.3680 -72.0940 146° Southeast 495 570 35,000  Level FlightAware
01:53AM 4.3100 -72.0550 146° Southeast 495 570 35,000  Level FlightAware
01:56AM 4.0688 -71.8461 139° Southeast  Level Estimated
01:57AM 3.9683 -71.7591 139° Southeast  Level Estimated
01:58AM 3.8677 -71.6722 139° Southeast  Level Estimated
01:59AM 3.7672 -71.5852 139° Southeast  Level Estimated
02:00AM 3.6666 -71.4983 139° Southeast  Level Estimated
02:01AM 3.5661 -71.4114 139° Southeast  Level Estimated
02:02AM 3.4655 -71.3245 139° Southeast  Level Estimated
02:03AM 3.3649 -71.2376 139° Southeast  Level Estimated
02:04AM 3.2644 -71.1508 139° Southeast  Level Estimated
02:05AM 3.1638 -71.0639 139° Southeast  Level Estimated
02:06AM 3.0632 -70.9771 139° Southeast  Level Estimated
02:07AM 2.9626 -70.8903 139° Southeast  Level Estimated
02:08AM 2.8620 -70.8036 139° Southeast  Level Estimated
02:09AM 2.7613 -70.7168 139° Southeast  Level Estimated
02:10AM 2.6607 -70.6300 139° Southeast  Level Estimated
02:11AM 2.5601 -70.5433 139° Southeast  Level Estimated
02:12AM 2.4595 -70.4566 139° Southeast  Level Estimated
02:13AM 2.3588 -70.3699 139° Southeast  Level Estimated
02:14AM 2.2582 -70.2831 139° Southeast  Level Estimated
02:15AM 2.1575 -70.1965 139° Southeast  Level Estimated
02:16AM 2.0569 -70.1098 139° Southeast  Level Estimated
02:17AM 1.9562 -70.0231 139° Southeast  Level Estimated
02:18AM 1.8555 -69.9364 139° Southeast  Level Estimated
02:19AM 1.7549 -69.8498 139° Southeast  Level Estimated
02:20AM 1.6542 -69.7632 139° Southeast  Level Estimated
02:21AM 1.5535 -69.6765 139° Southeast  Level Estimated
02:22AM 1.4528 -69.5899 139° Southeast  Level Estimated
02:23AM 1.3521 -69.5033 139° Southeast  Level Estimated
02:24AM 1.2515 -69.4167 139° Southeast  Level Estimated
02:25AM 1.1508 -69.3301 139° Southeast  Level Estimated
02:26AM 1.0501 -69.2435 139° Southeast  Level Estimated
02:27AM 0.9494 -69.1569 139° Southeast  Level Estimated
02:28AM 0.8487 -69.0703 139° Southeast  Level Estimated
02:29AM 0.7480 -68.9838 139° Southeast  Level Estimated
02:30AM 0.6473 -68.8972 139° Southeast  Level Estimated
02:31AM 0.5466 -68.8106 139° Southeast  Level Estimated
02:32AM 0.4459 -68.7241 139° Southeast  Level Estimated
02:33AM 0.3452 -68.6375 139° Southeast  Level Estimated
02:34AM 0.2445 -68.5509 139° Southeast  Level Estimated
02:35AM 0.1438 -68.4644 139° Southeast  Level Estimated
02:36AM 0.0431 -68.3778 139° Southeast  Level Estimated
02:37AM -0.0576 -68.2913 139° Southeast  Level Estimated
02:38AM -0.1584 -68.2047 139° Southeast  Level Estimated
02:39AM -0.2591 -68.1181 139° Southeast  Level Estimated
02:40AM -0.3598 -68.0316 139° Southeast  Level Estimated
02:41AM -0.4605 -67.9450 139° Southeast  Level Estimated
02:42AM -0.5612 -67.8584 139° Southeast  Level Estimated
02:43AM -0.6619 -67.7719 139° Southeast  Level Estimated
02:44AM -0.7626 -67.6853 139° Southeast  Level Estimated
02:45AM -0.8633 -67.5987 139° Southeast  Level Estimated
02:46AM -0.9640 -67.5121 139° Southeast  Level Estimated
02:47AM -1.0647 -67.4256 139° Southeast  Level Estimated
02:48AM -1.1654 -67.3390 139° Southeast  Level Estimated
02:49AM -1.2660 -67.2524 139° Southeast  Level Estimated
02:50AM -1.3667 -67.1657 139° Southeast  Level Estimated
02:51AM -1.4674 -67.0791 139° Southeast  Level Estimated
02:52AM -1.5681 -66.9925 139° Southeast  Level Estimated
02:53AM -1.6688 -66.9059 139° Southeast  Level Estimated
02:54AM -1.7694 -66.8193 139° Southeast  Level Estimated
02:55AM -1.8701 -66.7326 139° Southeast  Level Estimated
02:56AM -1.9708 -66.6459 139° Southeast  Level Estimated
02:57AM -2.0714 -66.5593 139° Southeast  Level Estimated
02:58AM -2.1721 -66.4726 139° Southeast  Level Estimated
02:59AM -2.2727 -66.3859 139° Southeast  Level Estimated
03:00AM -2.3734 -66.2992 139° Southeast  Level Estimated
03:01AM -2.4740 -66.2125 139° Southeast  Level Estimated
03:02AM -2.5747 -66.1257 139° Southeast  Level Estimated
03:03AM -2.6753 -66.0390 139° Southeast  Level Estimated
03:04AM -2.7759 -65.9522 139° Southeast  Level Estimated
03:05AM -2.8765 -65.8655 139° Southeast  Level Estimated
03:06AM -2.9771 -65.7787 139° Southeast  Level Estimated
03:07AM -3.0777 -65.6919 139° Southeast  Level Estimated
03:08AM -3.1783 -65.6051 139° Southeast  Level Estimated
03:09AM -3.2789 -65.5182 139° Southeast  Level Estimated
03:10AM -3.3795 -65.4314 139° Southeast  Level Estimated
03:11AM -3.4801 -65.3445 139° Southeast  Level Estimated
03:12AM -3.5807 -65.2576 139° Southeast  Level Estimated
03:13AM -3.6812 -65.1707 139° Southeast  Level Estimated
03:14AM -3.7818 -65.0838 139° Southeast  Level Estimated
03:15AM -3.8823 -64.9968 139° Southeast  Level Estimated
03:16AM -3.9828 -64.9099 139° Southeast  Level Estimated
03:17AM -4.0834 -64.8229 139° Southeast  Level Estimated
03:18AM -4.1839 -64.7359 139° Southeast  Level Estimated
03:19AM -4.2844 -64.6488 139° Southeast  Level Estimated
03:20AM -4.3849 -64.5618 139° Southeast  Level Estimated
03:21AM -4.4853 -64.4747 139° Southeast  Level Estimated
03:22AM -4.5858 -64.3876 139° Southeast  Level Estimated
03:23AM -4.6863 -64.3005 139° Southeast  Level Estimated
03:24AM -4.7867 -64.2133 139° Southeast  Level Estimated
03:25AM -4.8871 -64.1261 139° Southeast  Level Estimated
03:26AM -4.9876 -64.0389 139° Southeast  Level Estimated
03:27AM -5.0880 -63.9517 139° Southeast  Level Estimated
03:28AM -5.1884 -63.8644 139° Southeast  Level Estimated
03:29AM -5.2888 -63.7771 139° Southeast  Level Estimated
03:30AM -5.3892 -63.6898 139° Southeast  Level Estimated
03:31AM -5.4896 -63.6025 139° Southeast  Level Estimated
03:32AM -5.5899 -63.5151 139° Southeast  Level Estimated
03:33AM -5.6902 -63.4277 139° Southeast  Level Estimated
03:34AM -5.7906 -63.3403 139° Southeast  Level Estimated
03:35AM -5.8909 -63.2528 139° Southeast  Level Estimated
03:36AM -5.9912 -63.1653 139° Southeast  Level Estimated
03:37AM -6.0915 -63.0778 139° Southeast  Level Estimated
03:38AM -6.1918 -62.9902 139° Southeast  Level Estimated
03:39AM -6.2920 -62.9026 139° Southeast  Level Estimated
03:40AM -6.3923 -62.8150 139° Southeast  Level Estimated
03:41AM -6.4925 -62.7273 139° Southeast  Level Estimated
03:42AM -6.5927 -62.6396 139° Southeast  Level Estimated
03:43AM -6.6929 -62.5519 139° Southeast  Level Estimated
03:44AM -6.7931 -62.4641 139° Southeast  Level Estimated
03:45AM -6.8933 -62.3763 139° Southeast  Level Estimated
03:46AM -6.9934 -62.2885 139° Southeast  Level Estimated
03:47AM -7.0936 -62.2006 139° Southeast  Level Estimated
03:48AM -7.1937 -62.1127 139° Southeast  Level Estimated
03:49AM -7.2938 -62.0247 139° Southeast  Level Estimated
03:50AM -7.3939 -61.9367 139° Southeast  Level Estimated
03:51AM -7.4939 -61.8487 139° Southeast  Level Estimated
03:52AM -7.5940 -61.7606 139° Southeast  Level Estimated
03:53AM -7.6940 -61.6725 139° Southeast  Level Estimated
03:54AM -7.7940 -61.5843 139° Southeast  Level Estimated
03:55AM -7.8939 -61.4963 139° Southeast  Level Estimated
03:56AM -7.9937 -61.4082 139° Southeast  Level Estimated
03:57AM -8.0934 -61.3200 139° Southeast  Level Estimated
03:58AM -8.1932 -61.2319 139° Southeast  Level Estimated
03:59AM -8.2929 -61.1437 139° Southeast  Level Estimated
04:00AM -8.3927 -61.0554 139° Southeast  Level Estimated
04:01AM -8.4924 -60.9671 139° Southeast  Level Estimated
04:02AM -8.5921 -60.8787 139° Southeast  Level Estimated
04:03AM -8.6917 -60.7903 139° Southeast  Level Estimated
04:04AM -8.7914 -60.7019 139° Southeast  Level Estimated
04:05AM -8.8910 -60.6134 139° Southeast  Level Estimated
04:06AM -8.9906 -60.5248 139° Southeast  Level Estimated
04:07AM -9.0902 -60.4362 139° Southeast  Level Estimated
04:08AM -9.1898 -60.3476 139° Southeast  Level Estimated
04:09AM -9.2893 -60.2589 139° Southeast  Level Estimated
04:10AM -9.3888 -60.1702 139° Southeast  Level Estimated
04:11AM -9.4883 -60.0814 139° Southeast  Level Estimated
04:12AM -9.5878 -59.9925 139° Southeast  Level Estimated
04:13AM -9.6872 -59.9036 139° Southeast  Level Estimated
04:14AM -9.7867 -59.8147 139° Southeast  Level Estimated
04:15AM -9.8861 -59.7257 139° Southeast  Level Estimated
04:16AM -9.9854 -59.6366 139° Southeast  Level Estimated
04:17AM -10.0848 -59.5475 139° Southeast  Level Estimated
04:18AM -10.1841 -59.4583 139° Southeast  Level Estimated
04:19AM -10.2835 -59.3691 139° Southeast  Level Estimated
04:20AM -10.3827 -59.2798 139° Southeast  Level Estimated
04:21AM -10.4820 -59.1905 138° Southeast  Level Estimated
04:22AM -10.5812 -59.1011 138° Southeast  Level Estimated
04:23AM -10.6805 -59.0117 138° Southeast  Level Estimated
04:24AM -10.7796 -58.9221 138° Southeast  Level Estimated
04:25AM -10.8788 -58.8326 138° Southeast  Level Estimated
04:26AM -10.9779 -58.7430 138° Southeast  Level Estimated
04:27AM -11.0770 -58.6533 138° Southeast  Level Estimated
04:28AM -11.1761 -58.5635 138° Southeast  Level Estimated
04:29AM -11.2752 -58.4737 138° Southeast  Level Estimated
04:30AM -11.3742 -58.3838 138° Southeast  Level Estimated
04:31AM -11.4732 -58.2939 138° Southeast  Level Estimated
04:32AM -11.5722 -58.2039 138° Southeast  Level Estimated
04:33AM -11.6711 -58.1138 138° Southeast  Level Estimated
04:34AM -11.7700 -58.0237 138° Southeast  Level Estimated
04:35AM -11.8689 -57.9335 138° Southeast  Level Estimated
04:36AM -11.9678 -57.8433 138° Southeast  Level Estimated
04:37AM -12.0666 -57.7529 138° Southeast  Level Estimated
04:38AM -12.1654 -57.6626 138° Southeast  Level Estimated
04:39AM -12.2642 -57.5721 138° Southeast  Level Estimated
04:40AM -12.3629 -57.4816 138° Southeast  Level Estimated
04:41AM -12.4616 -57.3910 138° Southeast  Level Estimated
04:42AM -12.5603 -57.3003 138° Southeast  Level Estimated
04:43AM -12.6589 -57.2096 138° Southeast  Level Estimated
04:44AM -12.7576 -57.1188 138° Southeast  Level Estimated
04:45AM -12.8562 -57.0279 138° Southeast  Level Estimated
04:46AM -12.9547 -56.9370 138° Southeast  Level Estimated
04:47AM -13.0533 -56.8460 138° Southeast  Level Estimated
04:48AM -13.1517 -56.7549 138° Southeast  Level Estimated
04:49AM -13.2502 -56.6637 138° Southeast  Level Estimated
04:50AM -13.3486 -56.5725 138° Southeast  Level Estimated
04:51AM -13.4470 -56.4812 138° Southeast  Level Estimated
04:52AM -13.5454 -56.3898 138° Southeast  Level Estimated
04:53AM -13.6437 -56.2983 138° Southeast  Level Estimated
04:54AM -13.7420 -56.2068 138° Southeast  Level Estimated
04:55AM -13.8403 -56.1152 138° Southeast  Level Estimated
04:56AM -13.9385 -56.0235 138° Southeast  Level Estimated
04:57AM -14.0367 -55.9317 138° Southeast  Level Estimated
04:58AM -14.1349 -55.8399 138° Southeast  Level Estimated
04:59AM -14.2330 -55.7480 138° Southeast  Level Estimated
05:00AM -14.3311 -55.6559 138° Southeast  Level Estimated
05:01AM -14.4292 -55.5639 138° Southeast  Level Estimated
05:02AM -14.5272 -55.4717 138° Southeast  Level Estimated
05:03AM -14.6252 -55.3794 138° Southeast  Level Estimated
05:04AM -14.7231 -55.2871 138° Southeast  Level Estimated
05:05AM -14.8210 -55.1947 138° Southeast  Level Estimated
05:06AM -14.9189 -55.1022 138° Southeast  Level Estimated
05:07AM -15.0167 -55.0096 138° Southeast  Level Estimated
05:08AM -15.1145 -54.9169 138° Southeast  Level Estimated
05:09AM -15.2123 -54.8242 138° Southeast  Level Estimated
05:10AM -15.3100 -54.7313 138° Southeast  Level Estimated
05:11AM -15.4077 -54.6384 137° Southeast  Level Estimated
05:12AM -15.5054 -54.5454 137° Southeast  Level Estimated
05:13AM -15.6030 -54.4523 137° Southeast  Level Estimated
05:14AM -15.7005 -54.3591 137° Southeast  Level Estimated
05:15AM -15.7981 -54.2658 137° Southeast  Level Estimated
05:16AM -15.8956 -54.1725 137° Southeast  Level Estimated
05:17AM -15.9930 -54.0790 137° Southeast  Level Estimated
05:18AM -16.0904 -53.9855 137° Southeast  Level Estimated
05:19AM -16.1878 -53.8918 137° Southeast  Level Estimated
05:20AM -16.2851 -53.7981 137° Southeast  Level Estimated
05:21AM -16.3824 -53.7043 137° Southeast  Level Estimated
05:22AM -16.4797 -53.6103 137° Southeast  Level Estimated
05:23AM -16.5769 -53.5163 137° Southeast  Level Estimated
05:24AM -16.6740 -53.4222 137° Southeast  Level Estimated
05:25AM -16.7711 -53.3280 137° Southeast  Level Estimated
05:26AM -16.8682 -53.2337 137° Southeast  Level Estimated
05:27AM -16.9652 -53.1393 137° Southeast  Level Estimated
05:28AM -17.0622 -53.0448 137° Southeast  Level Estimated
05:29AM -17.1592 -52.9502 137° Southeast  Level Estimated
05:30AM -17.2561 -52.8555 137° Southeast  Level Estimated
05:31AM -17.3529 -52.7607 137° Southeast  Level Estimated
05:32AM -17.4497 -52.6658 137° Southeast  Level Estimated
05:33AM -17.5465 -52.5709 137° Southeast  Level Estimated
05:34AM -17.6432 -52.4757 137° Southeast  Level Estimated
05:35AM -17.7399 -52.3806 137° Southeast  Level Estimated
05:36AM -17.8365 -52.2853 137° Southeast  Level Estimated
05:37AM -17.9331 -52.1898 137° Southeast  Level Estimated
05:38AM -18.0296 -52.0943 137° Southeast  Level Estimated
05:39AM -18.1261 -51.9987 137° Southeast  Level Estimated
05:40AM -18.2226 -51.9030 137° Southeast  Level Estimated
05:41AM -18.3190 -51.8072 137° Southeast  Level Estimated
05:42AM -18.4153 -51.7113 137° Southeast  Level Estimated
05:42AM -19.0720 -50.5940 137° Southeast 483 556 35,000  Level FlightAware
05:43AM -18.5116 -51.6152 137° Southeast  Level Estimated
05:43AM -19.1210 -50.5400 134° Southeast 483 556 35,000  Level FlightAware
05:43AM -19.1760 -50.4810 135° Southeast 484 557 35,000  Level FlightAware
05:44AM -19.2350 -50.4170 134° Southeast 484 557 35,000  Level FlightAware
05:44AM -19.2870 -50.3600 134° Southeast 484 557 35,000  Level FlightAware
05:45AM -19.3390 -50.3030 134° Southeast 484 557 35,000  Level FlightAware
05:45AM -19.3930 -50.2440 134° Southeast 485 558 35,000  Level FlightAware
05:46AM -19.4500 -50.1830 135° Southeast 485 558 35,000  Level FlightAware
05:47AM -19.4970 -50.1310 134° Southeast 485 558 35,000  Level FlightAware
05:47AM -19.5610 -50.0610 134° Southeast 485 558 35,000  Level FlightAware
05:48AM -19.6120 -50.0050 134° Southeast 485 558 35,000  Level FlightAware
05:48AM -19.6620 -49.9510 135° Southeast 484 557 35,000  Level FlightAware
05:49AM -19.7220 -49.8840 134° Southeast 484 557 35,000  Level FlightAware
05:50AM -19.7760 -49.8250 134° Southeast 484 557 35,000  Level FlightAware
05:50AM -19.8330 -49.7630 134° Southeast 485 558 35,000  Level FlightAware
05:51AM -19.8890 -49.7010 134° Southeast 485 558 35,000  Level FlightAware
05:51AM -19.9390 -49.6460 134° Southeast 484 557 35,000  Level FlightAware
05:52AM -19.9960 -49.5840 134° Southeast 483 556 35,000  Level FlightAware
05:52AM -20.0510 -49.5230 134° Southeast 485 558 35,000  Level FlightAware
05:53AM -20.1070 -49.4610 134° Southeast 485 558 35,000  Level FlightAware
05:54AM -20.1560 -49.4070 134° Southeast 486 559 35,000  Level FlightAware
05:54AM -20.2130 -49.3440 134° Southeast 486 559 35,000  Level FlightAware
05:55AM -20.2700 -49.2800 134° Southeast 487 560 35,000  Level FlightAware
05:55AM -20.3210 -49.2240 134° Southeast 488 562 35,000  Level FlightAware
05:56AM -20.3740 -49.1640 133° Southeast 488 562 35,000  Level FlightAware
05:57AM -20.4370 -49.0950 134° Southeast 488 562 35,000  Level FlightAware
05:57AM -20.4870 -49.0390 134° Southeast 488 562 35,000  Level FlightAware
05:58AM -20.5430 -48.9770 134° Southeast 488 562 35,000  Level FlightAware
05:58AM -20.5910 -48.9230 134° Southeast 488 562 35,000  Level FlightAware
05:59AM -20.6520 -48.8560 134° Southeast 489 563 35,000  Level FlightAware
05:59AM -20.7070 -48.7930 133° Southeast 489 563 35,000  Level FlightAware
06:00AM -20.7600 -48.7340 134° Southeast 490 564 35,000  Level FlightAware
06:01AM -20.8140 -48.6740 134° Southeast 490 564 35,000  Level FlightAware
06:01AM -20.8710 -48.6110 134° Southeast 490 564 35,000  Level FlightAware
06:02AM -20.9310 -48.5520 137° Southeast 488 562 35,000  Level FlightAware
06:02AM -20.9940 -48.4950 140° Southeast 489 563 35,000  Level FlightAware
06:03AM -21.0490 -48.4470 141° Southeast 489 563 35,000  Level FlightAware
06:04AM -21.1090 -48.3950 141° Southeast 489 563 35,000  Level FlightAware
06:04AM -21.1750 -48.3370 141° Southeast 489 563 35,000  Level FlightAware
06:05AM -21.2330 -48.2880 142° Southeast 489 563 35,000  Level FlightAware
06:05AM -21.2960 -48.2330 141° Southeast 489 563 35,000  Level FlightAware
06:06AM -21.3580 -48.1780 140° Southeast 491 565 35,000  Level FlightAware
06:06AM -21.4220 -48.1220 141° Southeast 490 564 35,000  Level FlightAware
06:07AM -21.4820 -48.0700 141° Southeast 490 564 35,000  Level FlightAware
06:08AM -21.5420 -48.0170 141° Southeast 490 564 35,000  Level FlightAware
06:08AM -21.6040 -47.9620 140° Southeast 490 564 35,000  Level FlightAware
06:09AM -21.6680 -47.9060 141° Southeast 490 564 35,000 -120 Level FlightAware
06:09AM -21.7280 -47.8530 141° Southeast 488 562 34,900 -600 Descending FlightAware
06:10AM -21.7910 -47.7970 140° Southeast 487 560 34,300 -1,380 Descending FlightAware
06:11AM -21.8530 -47.7420 141° Southeast 494 568 33,300 -1,500 Descending FlightAware
06:11AM -21.9060 -47.6950 141° Southeast 496 571 32,700 -1,440 Descending FlightAware
06:12AM -21.9750 -47.6340 141° Southeast 488 562 31,700 -1,740 Descending FlightAware
06:12AM -22.0390 -47.5780 141° Southeast 478 550 30,500 -2,040 Descending FlightAware
06:13AM -22.0950 -47.5290 141° Southeast 470 541 29,400 -2,040 Descending FlightAware
06:13AM -22.1550 -47.4750 140° Southeast 470 541 28,200 -1,920 Descending FlightAware
06:14AM -22.2150 -47.4210 140° Southeast 463 533 27,100 -1,860 Descending FlightAware
06:15AM -22.2660 -47.3760 141° Southeast 453 521 26,100 -1,860 Descending FlightAware
06:15AM -22.3230 -47.3250 140° Southeast 445 512 25,000 -1,920 Descending FlightAware
06:16AM -22.3840 -47.2700 140° Southeast 434 499 23,800 -1,920 Descending FlightAware
06:16AM -22.4330 -47.2270 141° Southeast 425 489 22,800 -1,800 Descending FlightAware
06:17AM -22.4870 -47.1780 140° Southeast 416 479 21,800 -1,800 Descending FlightAware
06:18AM -22.5400 -47.1310 141° Southeast 406 467 20,700 -1,740 Descending FlightAware
06:18AM -22.5880 -47.0950 145° Southeast 397 457 19,800 -1,680 Descending FlightAware
06:19AM -22.6440 -47.0690 157° South 402 463 18,900 -1,740 Descending FlightAware
06:19AM -22.7110 -47.0410 159° South 406 467 17,800 -1,800 Descending FlightAware
06:20AM -22.7770 -47.0140 159° South 404 465 16,700 -1,860 Descending FlightAware
06:20AM -22.8330 -46.9910 159° South 396 456 15,700 -1,920 Descending FlightAware
06:21AM -22.8960 -46.9640 158° South 376 433 14,500 -2,100 Descending FlightAware
06:22AM -22.9470 -46.9420 158° South 355 409 13,300 -2,040 Descending FlightAware
06:22AM -23.0000 -46.9200 159° South 320 368 12,200 -1,800 Descending FlightAware
06:23AM -23.0420 -46.9020 158° South 296 341 11,300 -1,500 Descending FlightAware
06:23AM -23.0870 -46.8840 160° South 265 305 10,500 -840 Descending FlightAware
06:24AM -23.1260 -46.8670 158° South 235 270 10,300 -480 Descending FlightAware
06:24AM -23.1540 -46.8550 158° South 231 266 10,000 -660 Descending FlightAware
06:25AM -23.1640 -46.8510 160° South 227 261 9,900 -960 Descending FlightAware
06:25AM -23.1850 -46.8420 158° South 227 261 9,500 -900 Descending FlightAware
06:25AM -23.2040 -46.8340 159° South 229 264 9,300 -840 Descending FlightAware
06:26AM -23.2280 -46.8240 159° South 232 267 8,900 -840 Descending FlightAware
06:26AM -23.2490 -46.8150 159° South 227 261 8,700 -720 Descending FlightAware
06:26AM -23.2620 -46.8090 157° South 226 260 8,500 -840 Descending FlightAware
06:27AM -23.2860 -46.7990 159° South 225 259 8,200 -840 Descending FlightAware
06:27AM -23.3060 -46.7910 160° South 224 258 7,900 -900 Descending FlightAware
06:27AM -23.3250 -46.7830 159° South 223 257 7,600 -840 Descending FlightAware
06:28AM -23.3400 -46.7760 157° South 225 259 7,400 -1,020 Descending FlightAware
06:28AM -23.3600 -46.7680 160° South 226 260 7,000 -1,140 Descending FlightAware
06:28AM -23.3760 -46.7580 150° Southeast 224 258 6,700 -900 Descending FlightAware
06:29AM -23.3940 -46.7430 143° Southeast 226 260 6,400 -900 Descending FlightAware
06:29AM -23.4100 -46.7280 139° Southeast 227 261 6,100 -960 Descending FlightAware
06:29AM -23.4290 -46.7100 139° Southeast 225 259 5,700 -960 Descending FlightAware
06:30AM -23.4450 -46.6940 137° Southeast 224 258 5,400 -900 Descending FlightAware
06:30AM -23.4530 -46.6810 124° Southeast 222 255 5,200 -900 Descending FlightAware
06:30AM -23.4620 -46.6600 115° Southeast 220 253 4,900 -720 Descending FlightAware
06:31AM -23.4710 -46.6380 114° Southeast 216 249 4,700 -720 Descending FlightAware
06:31AM -23.4740 -46.6260 105° East 210 242 4,500 -600 Descending FlightAware
06:31AM -23.4680 -46.5970 77° East 200 230 4,300 -720 Descending FlightAware
06:32AM -23.4630 -46.5780 74° East 197 227 3,900 -900 Descending FlightAware
06:32AM -23.4580 -46.5580 75° East 175 201 3,700 -720 Descending FlightAware
06:32AM -23.4530 -46.5420 71° East 159 183 3,400 -960 Descending FlightAware
06:33AM -23.4490 -46.5240 76° East 150 173 3,000 -1,020 Descending FlightAware
06:33AM -23.4450 -46.5120 70° East 150 173 2,700 -840 Descending FlightAware
06:33AM -23.4420 -46.5000 75° East 139 160 2,500 -660 Descending FlightAware
06:34AM -23.4390 -46.4860 77° East 138 159 2,300 -600 Descending FlightAware